Hauptseite
METAR-TAF:

METAR-TAF

Flughäfen :

Lübeck, Deutschland

Flughafen Lübeck

Breite: 53-49N, Länge: 010-42E, Höhe: 14 m

Beobachtung

Neuester Wetterbericht von vor 5 Stunden und 53 Minuten, um 18:20 UTC
Wind 10 kt aus Ost
Temperatur 16°C
Luftfeuchtigkeit 72%
Luftdruck 1010 hPa
Sichtweite 10 km oder mehr
keine Wolken unter 1500 m und keine Kumulonimbus oder Gewitterwolken

METAR: EDHL 271820Z 08010KT CAVOK 16/11 Q1010

Zeit: 02:13 (00:13 UTC)

Prognose

Neuester Wetterbericht von vor 7 Stunden und 13 Minuten, um 17:00 UTC
Gültige Prognose vom 27 um 18 UTC bis 27 um 21 UTC
Wind 6 kt aus Ost/Nordost
Sichtweite 10 km oder mehr
keine Wolken unter 1500 m und keine Kumulonimbus oder Gewitterwolken

TAF: EDHL 271700Z 2718/2721 07006KT CAVOK

Wetterbeobachtungen und Prognosen von mehr als 4000 Flughäfen (METAR und TAF Bericht).

Die verfügbaren Stationen werden durch gelbe und rote Markierungen auf der Karte dargestellt.

Führen Sie die Maus auf sie, um den Namen der Station zu sehen.

Darauf klicken, um die Beobachtung von Wetterbeobachtungen und Prognosen zu sehen.

Um die Karte zu ändern : klicken Sie auf den grünen Tasten mit einem schwarzen Kreuz Zum Vergrößern, auf den grünen Button mit einem Gedankenstrich zu verkleinern, oder auf die grünen Pfeile für benachbarte Karten.


METAR-TAF: